Latest Coastal Weather Observations for Strahan

IDT60701

Issued at 8:32 pm EST Monday 27 April 2015 (issued every 10 minutes, with the page automatically refreshed every 10 minutes)

About coastal observations | Map of coastal stations | Coastal observations for TAS | Marine services | Other Formats
Station Details ID: 097072 Name: STRAHAN AERODROME Lat: -42.16 Lon: 145.29 Height: 21.0 m
Data from the previous 72 hours. | See also: Recent months at Strahan
Date/Time
EST
Temp

°C
Wind Pressure Rain
since 9am
mm
Weather Cloud Vis
km
Sea
Height
m
Swell
Dir
 
Speed
knots
Gust
knots
hPa Trend Height
m
Period
s
Dir
27/08:30pm 9.5 ESE 4 4 1025.0 - 1.0 - Cloudy 10 - - - -
27/08:00pm 9.3 SSE 5 7 1024.5 - 1.0 - Cloudy 10 - - - -
27/07:30pm 9.2 SSE 5 7 1024.4 - 1.0 - Partly cloudy 10 - - - -
27/07:00pm 9.3 S 6 7 1024.1 - 1.0 - Partly cloudy 10 - - - -
27/06:30pm 8.8 S 5 7 1023.7 - 1.0 - - 10 - - - -
27/06:00pm 8.9 SSW 8 9 1023.3 - 1.0 - Partly cloudy 10 - - - -
27/05:30pm 9.5 SSW 7 11 1023.1 - 1.0 - Cloudy 10 - - - -
27/05:00pm 10.7 SSW 7 10 1022.7 - 1.0 - Cloudy 10 - - - -
27/04:30pm 12.5 SW 9 11 1022.5 - 1.0 - Partly cloudy 10 - - - -
27/04:00pm 12.5 SSW 8 11 1022.4 - 1.0 - Partly cloudy 10 - - - -
27/03:30pm 12.9 SSW 10 13 1022.2 - 1.0 - Partly cloudy 10 - - - -
27/03:00pm 12.9 SW 9 12 1022.0 - 1.0 - Mostly clear 10 - - - -
27/02:30pm 12.2 SE 5 6 1021.7 - 1.0 - Partly cloudy 10 - - - -
27/02:00pm 12.9 SSE 7 10 1021.5 - 1.0 - Partly cloudy 10 - - - -
27/01:30pm 11.9 SSW 9 13 1021.5 - 1.0 - Partly cloudy 10 - - - -
27/01:00pm 11.3 ESE 3 6 1021.6 - 1.0 - Partly cloudy 10 - - - -
27/12:30pm 12.2 SE 7 10 1021.8 - 1.0 - Partly cloudy 10 - - - -
27/12:00pm 10.7 SE 7 10 1022.0 - 1.0 - Cloudy 10 - - - -
27/11:30am 11.0 SSE 3 7 1021.9 - 1.0 - Partly cloudy 10 - - - -
27/11:00am 11.2 E 5 6 1022.0 - 1.0 - Partly cloudy 10 - - - -
27/10:59am 10.8 E 5 6 1022.0 - 1.0 - Partly cloudy 10 - - - -
27/10:30am 10.6 ESE 6 8 1021.8 - 0.6 - Partly cloudy 4 - - - -
27/10:27am 10.6 ESE 4 7 1021.8 - 0.6 - Partly cloudy 5 - - - -
27/10:00am 10.4 E 5 7 1021.4 - 0.2 - Partly cloudy 10 - - - -
27/09:39am 9.8 ESE 8 11 1021.3 - 0.2 - Partly cloudy 10 - - - -
27/09:30am 9.6 SE 8 12 1021.2 - 0.2 - Partly cloudy 6 - - - -
27/09:22am 9.7 ESE 7 14 1021.2 - 0.2 - Partly cloudy 5 - - - -
27/09:00am 10.1 NE 3 5 1021.0 - 6.6 Recent precip. Partly cloudy 10 - - - -
27/08:30am 9.6 ESE 5 7 1020.8 - 6.6 - Partly cloudy 10 - - - -
27/08:17am 9.3 S 6 8 1020.6 - 6.6 - Partly cloudy 10 - - - -
27/08:06am 9.2 CALM 0 7 1020.6 - 6.6 - Partly cloudy 5 - - - -
27/08:00am 9.0 CALM 0 0 1020.5 - 6.4 - Partly cloudy 9 - - - -
27/07:37am 8.9 SW 8 13 1020.2 - 6.4 - Partly cloudy 5 - - - -
27/07:30am 8.8 SW 9 12 1020.1 - 6.2 - Partly cloudy 10 - - - -
27/07:00am 8.6 SW 10 14 1019.7 - 6.2 - Partly cloudy 10 - - - -
27/06:30am 8.2 SSW 5 6 1019.3 - 6.2 - Partly cloudy 10 - - - -
27/06:29am 8.2 SSW 5 6 1019.3 - 6.2 - Partly cloudy 10 - - - -
27/06:13am 8.5 SW 6 10 1019.3 - 6.2 - Partly cloudy 5 - - - -
27/06:00am 8.1 W 5 5 1019.2 - 6.0 - Partly cloudy 10 - - - -
27/05:30am 8.1 NW 3 4 1019.2 - 6.0 - Partly cloudy 10 - - - -
27/05:00am 8.2 E 5 8 1019.0 - 6.0 - Partly cloudy 10 - - - -
27/04:30am 7.9 S 6 7 1018.5 - 5.8 - Partly cloudy 10 - - - -
27/04:00am 8.1 S 7 9 1018.3 - 5.8 - Partly cloudy 10 - - - -
27/03:30am 8.5 SSW 8 11 1018.4 - 5.8 - Partly cloudy 10 - - - -
27/03:00am 7.6 SSW 6 7 1018.2 - 5.6 - Partly cloudy 10 - - - -
27/02:30am 8.5 SSW 7 11 1018.3 - 5.6 - Partly cloudy 10 - - - -
27/02:00am 8.5 S 6 8 1018.3 - 5.6 - Partly cloudy 10 - - - -
27/01:30am 8.7 SSE 5 9 1018.2 - 5.6 - Partly cloudy 10 - - - -
27/01:00am 7.9 SSW 5 6 1018.1 - 5.6 - Partly cloudy 10 - - - -
27/12:30am 8.7 SSW 7 9 1018.1 - 5.6 - Partly cloudy 10 - - - -
27/12:00am 8.3 SSW 6 7 1018.1 - 5.4 - Cloudy 10 - - - -
 
Date/Time
EST
Temp

°C
Wind Pressure Rain
since 9am
mm
Weather Cloud Vis
km
Sea
Height
m
Swell
Dir
 
Speed
knots
Gust
knots
hPa Trend Height
m
Period
s
Dir
26/11:30pm 8.1 SSW 7 9 1018.0 - 5.4 - Partly cloudy 10 - - - -
26/11:00pm 8.2 S 3 5 1017.9 - 5.4 - Partly cloudy 10 - - - -
26/10:30pm 8.7 SSW 7 11 1018.0 - 5.4 - Partly cloudy 10 - - - -
26/10:00pm 7.8 S 5 6 1017.9 - 5.4 - Partly cloudy 10 - - - -
26/09:30pm 8.8 WSW 5 6 1017.8 - 5.0 - Partly cloudy 10 - - - -
26/09:00pm 8.6 SW 8 11 1017.7 - 5.0 - Cloudy 10 - - - -
26/08:30pm 8.7 SW 8 13 1017.4 - 5.0 - Partly cloudy 10 - - - -
26/08:00pm 8.7 S 7 10 1017.3 - 5.0 - Partly cloudy 10 - - - -
26/07:46pm 8.7 SSW 6 9 1017.2 - 5.0 - Partly cloudy 10 - - - -
26/07:30pm 8.8 SW 10 18 1017.2 - 4.8 - Partly cloudy 5 - - - -
26/07:29pm 8.8 SW 10 18 1017.2 - 4.8 - Partly cloudy 5 - - - -
26/07:07pm 8.7 S 7 9 1016.9 - 4.6 - Partly cloudy 10 - - - -
26/07:00pm 8.8 SSW 10 18 1016.9 - 4.6 - Partly cloudy 9 - - - -
26/06:51pm 9.0 SSW 12 19 1016.9 - 4.4 - Partly cloudy 5 - - - -
26/06:30pm 9.2 WSW 8 10 1016.4 - 4.2 - Partly cloudy 10 - - - -
26/06:00pm 9.1 SW 6 8 1016.0 - 4.2 Recent precip. Mostly cloudy 10 - - - -
26/05:30pm 9.6 SSW 10 16 1015.6 - 4.0 - Partly cloudy 10 - - - -
26/05:00pm 9.9 SW 9 13 1015.3 - 4.0 - Partly cloudy 10 - - - -
26/04:30pm 10.9 SW 5 9 1015.1 - 4.0 - Partly cloudy 10 - - - -
26/04:15pm 10.1 SW 7 9 1015.0 - 4.0 - Partly cloudy 10 - - - -
26/04:00pm 10.1 SW 11 21 1015.0 - 4.0 - Partly cloudy 4 - - - -
26/03:56pm 9.9 SSW 11 21 1015.1 - 3.8 - Partly cloudy 5 - - - -
26/03:37pm 10.5 SSW 9 12 1014.8 - 3.2 - Partly cloudy 10 - - - -
26/03:30pm 10.6 SW 10 15 1014.8 - 3.2 - Partly cloudy 8 - - - -
26/03:23pm 10.5 WSW 12 18 1014.8 - 3.2 - Partly cloudy 5 - - - -
26/03:00pm 11.1 WSW 9 11 1014.5 - 3.0 Recent precip. Cloudy 10 - - - -
26/02:40pm 10.6 WSW 12 22 1014.7 - 2.8 - Partly cloudy 5 - - - -
26/02:30pm 12.2 W 9 14 1014.4 - 1.8 - Partly cloudy 10 - - - -
26/02:00pm 12.3 WNW 7 9 1014.5 - 1.8 - Partly cloudy 10 - - - -
26/01:30pm 11.8 W 6 12 1014.7 - 1.8 - Partly cloudy 7 - - - -
26/01:00pm 11.7 NNW 4 7 1014.7 - 1.6 - Partly cloudy 10 - - - -
26/12:45pm 11.5 N 3 4 1014.8 - 1.6 - Partly cloudy 10 - - - -
26/12:30pm 10.7 NNW 4 5 1015.0 - 1.6 - Partly cloudy 4 - - - -
26/12:26pm 10.7 NNW 4 5 1015.0 - 1.6 - Partly cloudy 5 - - - -
26/12:20pm 10.8 NNW 3 5 1015.0 - 1.4 - Partly cloudy 10 - - - -
26/12:03pm 10.6 WNW 3 6 1015.1 - 1.4 - Partly cloudy 5 - - - -
26/12:00pm 10.5 WNW 4 7 1015.1 - 1.4 Rain Cloudy 4 - - - -
26/11:53am 10.8 WNW 5 7 1015.1 - 1.2 - Partly cloudy 5 - - - -
26/11:49am 10.9 NW 6 9 1015.2 - 1.2 - Partly cloudy 10 - - - -
26/11:30am 11.6 N 4 7 1015.1 - 1.2 - Partly cloudy 10 - - - -
26/11:00am 10.1 NNE 5 8 1015.6 - 1.2 - Partly cloudy 10 - - - -
26/10:48am 9.8 NE 6 8 1015.6 - 1.2 - Partly cloudy 10 - - - -
26/10:47am 9.8 NNE 6 8 1015.6 - 1.2 - Partly cloudy 10 - - - -
26/10:30am 9.7 NNW 4 6 1015.7 - 1.0 - Partly cloudy 3 - - - -
26/10:00am 9.4 NNW 3 4 1015.8 - 0.4 - Partly cloudy 2 - - - -
26/09:51am 9.6 NW 1 3 1015.8 - 0.2 - Partly cloudy 4 - - - -
26/09:33am 9.7 N 3 5 1015.8 - 0.0 - Partly cloudy 5 - - - -
26/09:30am 9.7 NE 3 8 1015.8 - 0.0 - Partly cloudy 10 - - - -
26/09:00am 9.5 NNE 5 7 1015.8 - 0.2 - Cloudy 10 - - - -
26/08:30am 8.8 NNE 5 8 1015.6 - 0.2 - Cloudy 10 - - - -
26/08:00am 8.5 ENE 6 9 1015.6 - 0.2 - Cloudy 10 - - - -
26/07:30am 8.4 WSW 1 4 1015.9 - 0.2 - Cloudy 10 - - - -
26/07:00am 8.6 WSW 6 9 1015.7 - 0.2 - Partly cloudy 10 - - - -
26/06:30am 8.7 SSW 6 7 1015.4 - 0.2 - Partly cloudy 10 - - - -
26/06:00am 9.0 SW 9 11 1015.3 - 0.2 - Cloudy 10 - - - -
26/05:30am 9.2 SW 9 12 1015.0 - 0.2 - Cloudy 10 - - - -
26/05:00am 9.1 SW 7 9 1014.9 - 0.2 - Cloudy 10 - - - -
26/04:30am 9.2 SW 8 11 1014.7 - 0.2 - Cloudy 10 - - - -
26/04:00am 9.1 WSW 5 7 1014.6 - 0.2 - Cloudy 10 - - - -
26/03:30am 9.2 WSW 8 10 1014.6 - 0.2 - Cloudy 10 - - - -
26/03:00am 9.0 WSW 7 9 1014.6 - 0.2 - Cloudy 10 - - - -
26/02:30am 8.7 SSW 1 5 1014.8 - 0.2 - Cloudy 10 - - - -
26/02:00am 8.6 SSW 1 5 1014.8 - 0.2 - Cloudy 10 - - - -
26/01:30am 8.8 E 3 5 1014.8 - 0.2 - Cloudy 10 - - - -
26/01:00am 8.7 NNW 3 5 1014.7 - 0.2 - Cloudy 10 - - - -
26/12:30am 8.7 NE 2 4 1014.7 - 0.2 - Cloudy 10 - - - -
26/12:00am 8.9 ENE 3 4 1014.7 - 0.2 - Cloudy 10 - - - -
 
Date/Time
EST
Temp

°C
Wind Pressure Rain
since 9am
mm
Weather Cloud Vis
km
Sea
Height
m
Swell
Dir
 
Speed
knots
Gust
knots
hPa Trend Height
m
Period
s
Dir
25/11:30pm 9.2 E 2 4 1014.7 - 0.2 - Cloudy 10 - - - -
25/11:00pm 9.8 S 5 7 1014.7 - 0.2 - Cloudy 10 - - - -
25/10:30pm 9.9 S 6 9 1014.8 - 0.2 - Cloudy 10 - - - -
25/10:00pm 10.1 S 7 11 1014.9 - 0.2 - Cloudy 10 - - - -
25/09:30pm 10.0 S 7 10 1014.7 - 0.2 - Cloudy 10 - - - -
25/09:00pm 10.0 SSE 9 12 1014.5 - 0.2 - Mostly cloudy 10 - - - -
25/08:30pm 10.3 SSE 10 13 1014.4 - 0.2 - Cloudy 10 - - - -
25/08:00pm 10.4 SSE 11 15 1014.2 - 0.2 - Cloudy 10 - - - -
25/07:30pm 10.4 SSE 11 16 1014.0 - 0.2 - Cloudy 10 - - - -
25/07:00pm 10.6 SSE 11 16 1013.7 - 0.2 - Cloudy 10 - - - -
25/06:30pm 10.6 SSE 12 16 1013.4 - 0.2 - Cloudy 10 - - - -
25/06:00pm 10.8 S 13 18 1012.9 - 0.2 - Cloudy 10 - - - -
25/05:30pm 11.1 SSW 13 16 1012.2 - 0.2 - Cloudy 10 - - - -
25/05:00pm 11.7 S 10 16 1011.9 - 0.2 - Cloudy 10 - - - -
25/04:30pm 12.2 S 12 16 1011.7 - 0.2 - Partly cloudy 10 - - - -
25/04:00pm 12.9 SSW 13 17 1011.6 - 0.2 - Partly cloudy 10 - - - -
25/03:30pm 13.2 SSW 15 20 1011.3 - 0.2 - Cloudy 10 - - - -
25/03:00pm 14.2 SSW 12 16 1011.0 - 0.0 - Cloudy 10 - - - -
25/02:30pm 13.7 SSE 9 12 1010.8 - 0.0 - Partly cloudy 10 - - - -
25/02:00pm 14.3 S 11 16 1010.7 - 0.0 - Partly cloudy 10 - - - -
25/01:30pm 14.0 SSE 12 17 1010.7 - 0.0 - - 10 - - - -
25/01:00pm 14.0 SSE 12 17 1010.7 - 0.0 - - 10 - - - -
25/12:30pm 13.6 SSE 12 16 1010.7 - 0.0 - - 10 - - - -
25/12:00pm 13.2 SSE 13 17 1010.8 - 0.0 - Mostly clear 10 - - - -
25/11:30am 12.6 SSE 12 17 1010.9 - 0.0 - Cloudy 10 - - - -
25/11:00am 12.1 SSE 12 17 1010.9 - 0.0 - Cloudy 10 - - - -
25/10:30am 11.6 SSE 13 19 1010.8 - 0.0 - Partly cloudy 10 - - - -
25/10:00am 11.4 SSE 15 20 1010.8 - 0.0 - Partly cloudy 10 - - - -
25/09:30am 10.8 SSE 13 21 1010.7 - 0.0 - Partly cloudy 10 - - - -
25/09:00am 10.5 SSE 13 19 1010.6 - 0.2 - Mostly clear 10 - - - -
25/08:30am 10.1 SSE 14 21 1010.3 - 0.2 - Partly cloudy 10 - - - -
25/08:06am 10.0 SSE 11 19 1010.1 - 0.2 - Partly cloudy 10 - - - -
25/08:01am 10.0 SSE 11 16 1010.0 - 0.2 - Partly cloudy 10 - - - -
25/08:00am 10.0 SSE 11 16 1010.0 - 0.2 - Partly cloudy 10 - - - -
25/07:30am 10.3 S 10 14 1009.5 - 0.2 - Partly cloudy 3 - - - -
25/07:20am 10.3 SSE 11 16 1009.3 - 0.0 - Partly cloudy 3 - - - -
25/07:08am 10.5 S 12 17 1009.1 - 0.0 - Partly cloudy 5 - - - -
25/07:00am 10.7 S 9 15 1009.0 - 0.0 - Partly cloudy 10 - - - -
25/06:30am 10.6 SSW 6 8 1008.4 - 0.0 - Partly cloudy 10 - - - -
25/06:00am 10.0 SSE 5 6 1007.9 - 0.0 - Mostly cloudy 10 - - - -
25/05:30am 9.8 SSE 5 7 1007.7 - 0.0 - Partly cloudy 10 - - - -
25/05:00am 9.9 SSE 4 6 1007.6 - 0.0 - - 10 - - - -
25/04:30am 10.1 SSE 5 6 1007.2 - 0.0 - Partly cloudy 10 - - - -
25/04:00am 10.5 SE 8 11 1007.0 - 0.0 - Partly cloudy 10 - - - -
25/03:51am 10.7 SE 9 11 1007.0 - 0.0 - Partly cloudy 10 - - - -
25/03:35am 10.9 SE 8 11 1007.0 - 0.0 - Partly cloudy 10 - - - -
25/03:30am 11.0 SSE 8 11 1007.0 - 0.0 - Partly cloudy 10 - - - -
25/03:28am 11.0 SSE 8 11 1006.9 - 0.0 - Partly cloudy 10 - - - -
25/03:06am 10.9 SSE 6 10 1006.8 - 0.0 - Partly cloudy 10 - - - -
25/03:00am 10.9 SE 5 8 1006.7 - 0.0 - Cloudy 10 - - - -
25/02:30am 10.7 SE 5 7 1006.6 - 0.0 - Partly cloudy 10 - - - -
25/02:00am 11.0 SSE 4 6 1006.6 - 0.0 - Partly cloudy 10 - - - -
25/01:30am 11.2 SE 5 7 1006.4 - 0.0 - Partly cloudy 10 - - - -
25/01:00am 11.4 SSE 7 10 1006.3 - 0.0 - Partly cloudy 10 - - - -
25/12:30am 11.6 SSE 7 9 1006.3 - 0.0 - Partly cloudy 10 - - - -
25/12:00am 11.3 SSE 5 6 1006.2 - 0.0 - Mostly cloudy 10 - - - -
 
Date/Time
EST
Temp

°C
Wind Pressure Rain
since 9am
mm
Weather Cloud Vis
km
Sea
Height
m
Swell
Dir
 
Speed
knots
Gust
knots
hPa Trend Height
m
Period
s
Dir
24/11:30pm 11.4 SSE 5 6 1006.1 - 0.0 - Cloudy 10 - - - -
24/11:00pm 11.4 SE 5 7 1006.0 - 0.0 - Cloudy 10 - - - -
24/10:30pm 11.2 SSE 6 8 1006.0 - 0.0 - Partly cloudy 10 - - - -
24/10:00pm 11.0 SE 5 6 1005.8 - 0.0 - Partly cloudy 10 - - - -
24/09:30pm 11.5 SE 7 9 1005.7 - 0.0 - Partly cloudy 10 - - - -
24/09:00pm 11.9 SE 8 11 1005.5 - 0.0 - Cloudy 10 - - - -

Other Formats:

Comma delimited format used in spreadsheet applications
http://www.bom.gov.au/fwo/IDT60701/IDT60701.94956.axf

JavaScript Object Notation format (JSON) in row-major order
http://www.bom.gov.au/fwo/IDT60701/IDT60701.94956.json